This is the latest recevied weather packets stored in our database for station/object N1ICS-1. If no packets are shown the sender has not sent any weather packets the latest 10 day(s).
| Time | Temp. | Humidity | Pressure | Rain* | Wind** | Luminosity | Snow |
|---|---|---|---|---|---|---|---|
| 1776998102 | 21.11° C | 57% | 1012.2 hPa | 0 mm | - | 0 W/m² | - |
| 1776997802 | 21.11° C | 59% | 1012.3 hPa | 0 mm | - | 0 W/m² | - |
| 1776997502 | 21.11° C | 61% | 1012.2 hPa | 0 mm | - | 0 W/m² | - |
| 1776997202 | 21.11° C | 60% | 1012.2 hPa | 0 mm | - | 0 W/m² | - |
| 1776996901 | 21.67° C | 57% | 1012.3 hPa | 0 mm | - | 0 W/m² | - |
| 1776996602 | 21.11° C | 60% | 1012.2 hPa | 0 mm | - | 0 W/m² | - |
| 1776996301 | 20° C | 66% | 1012 hPa | 0 mm | - | 0 W/m² | - |
| 1776996002 | 18.33° C | 74% | 1012.2 hPa | 0 mm | - | 0 W/m² | - |
| 1776995702 | 17.78° C | 77% | 1012 hPa | 0 mm | - | 0 W/m² | - |
| 1776995402 | 17.78° C | 79% | 1011.9 hPa | 0 mm | - | 0 W/m² | - |
| 1776995102 | 18.33° C | 78% | 1012.2 hPa | 0 mm | - | 0 W/m² | - |
| 1776994801 | 17.78° C | 79% | 1012 hPa | 0 mm | - | 0 W/m² | - |
| 1776994502 | 18.33° C | 78% | 1012.1 hPa | 0 mm | - | 0 W/m² | - |
| 1776994202 | 19.44° C | 72% | 1012.1 hPa | 0 mm | - | 0 W/m² | - |
| 1776993902 | 20° C | 67% | 1012 hPa | 0 mm | - | 0 W/m² | - |
| 1776993602 | 20° C | 65% | 1012.2 hPa | 0 mm | - | 0 W/m² | - |
| 1776993302 | 19.44° C | 76% | 1012.2 hPa | 0 mm | - | 0 W/m² | - |
| 1776993002 | 19.44° C | 77% | 1012.2 hPa | 0 mm | - | 0 W/m² | - |
| 1776992701 | 20.56° C | 69% | 1011.9 hPa | 0 mm | - | 0 W/m² | - |
| 1776992402 | 21.11° C | 62% | 1012.1 hPa | 0 mm | - | 0 W/m² | - |
| 1776992102 | 21.67° C | 67% | 1012.3 hPa | 0 mm | - | 0 W/m² | - |
| 1776991802 | 21.11° C | 65% | 1012.1 hPa | 0 mm | - | 0 W/m² | - |
| 1776991502 | 20.56° C | 66% | 1012 hPa | 0 mm | - | 0 W/m² | - |
| 1776991201 | 21.11° C | 72% | 1011.9 hPa | 0 mm | - | 0 W/m² | - |
| 1776990902 | 21.67° C | 62% | 1012 hPa | 0 mm | - | 1 W/m² | - |
* Rain latest hour (hover to see other rain measurements)
** Current wind speed in m/s (hover to see current wind gust speed)